createdAt,value
2018-11-03T00:02:05.431Z,27.10
2018-11-03T00:04:37.346Z,28.43
2018-11-03T00:07:09.150Z,28.97
2018-11-03T00:09:41.009Z,27.73
2018-11-03T00:12:12.783Z,30.07
2018-11-03T00:14:44.625Z,27.73
2018-11-03T00:17:16.482Z,28.80
2018-11-03T00:19:48.501Z,32.00
2018-11-03T00:22:20.293Z,27.20
2018-11-03T00:24:52.440Z,27.17
2018-11-03T00:27:24.768Z,27.23
2018-11-03T00:29:56.743Z,29.70
2018-11-03T00:32:30.101Z,28.17
2018-11-03T00:35:02.534Z,28.53
2018-11-03T00:37:34.506Z,25.23
2018-11-03T00:40:07.675Z,26.33
2018-11-03T00:42:39.715Z,27.47
2018-11-03T00:45:13.099Z,25.50
2018-11-03T00:47:45.379Z,25.80
2018-11-03T00:50:17.568Z,26.20
2018-11-03T00:52:49.480Z,26.07
2018-11-03T00:55:21.314Z,28.73
2018-11-03T00:57:53.736Z,27.47
2018-11-03T01:00:25.669Z,28.57
2018-11-03T01:02:57.771Z,29.60
2018-11-03T01:05:29.718Z,26.47
2018-11-03T01:08:01.787Z,29.20
2018-11-03T01:10:33.627Z,26.67
2018-11-03T01:13:05.618Z,27.23
2018-11-03T01:15:37.441Z,27.73
2018-11-03T01:18:09.264Z,27.60
2018-11-03T01:20:41.135Z,27.87
2018-11-03T01:23:12.929Z,26.97
2018-11-03T01:25:44.732Z,26.70
2018-11-03T01:28:16.527Z,27.23
2018-11-03T01:30:48.418Z,25.37
2018-11-03T01:33:20.250Z,27.03
2018-11-03T01:35:52.065Z,25.37
2018-11-03T01:38:26.415Z,28.40
2018-11-03T01:40:58.267Z,25.73
2018-11-03T01:43:30.013Z,27.90
2018-11-03T01:46:01.904Z,26.20
2018-11-03T01:48:33.729Z,26.50
2018-11-03T01:51:05.508Z,24.63
2018-11-03T01:53:37.307Z,26.60
2018-11-03T01:56:09.128Z,28.50
2018-11-03T01:58:40.961Z,27.63
2018-11-03T02:01:12.784Z,30.80
2018-11-03T02:03:44.582Z,25.17
2018-11-03T02:06:16.441Z,24.43
2018-11-03T02:08:48.234Z,22.80
2018-11-03T02:11:20.070Z,26.57
2018-11-03T02:13:54.035Z,23.33
2018-11-03T02:16:25.841Z,25.43
2018-11-03T02:18:57.643Z,26.83
2018-11-03T02:21:29.449Z,25.67
2018-11-03T02:24:01.235Z,23.90
2018-11-03T02:26:33.070Z,26.60
2018-11-03T02:29:04.864Z,26.27
2018-11-03T02:31:36.699Z,27.93
2018-11-03T02:34:08.534Z,27.20
2018-11-03T02:36:42.647Z,24.77
2018-11-03T02:39:14.441Z,27.80
2018-11-03T02:41:46.260Z,25.70
2018-11-03T02:44:18.043Z,27.17
2018-11-03T02:46:49.866Z,26.40
2018-11-03T02:49:21.910Z,24.90
2018-11-03T02:51:53.802Z,23.97
2018-11-03T02:54:25.593Z,26.90
2018-11-03T02:56:57.409Z,29.27
2018-11-03T02:59:29.199Z,26.20
2018-11-03T03:02:01.029Z,26.73
2018-11-03T03:04:32.817Z,27.53
2018-11-03T03:07:04.628Z,27.77
2018-11-03T03:09:36.450Z,26.00
2018-11-03T03:12:08.572Z,27.40
2018-11-03T03:14:40.357Z,25.73
2018-11-03T03:17:12.169Z,25.10
2018-11-03T03:19:43.965Z,28.27
2018-11-03T03:22:15.785Z,23.70
2018-11-03T03:24:47.634Z,25.20
2018-11-03T03:27:19.484Z,28.70
2018-11-03T03:29:51.285Z,26.20
2018-11-03T03:32:23.184Z,26.23
2018-11-03T03:34:54.969Z,26.60
2018-11-03T03:37:26.854Z,30.30
2018-11-03T03:39:58.754Z,25.20
2018-11-03T03:42:30.702Z,26.40
2018-11-03T03:45:02.860Z,27.40
2018-11-03T03:47:34.635Z,27.10
2018-11-03T03:50:06.938Z,26.07
2018-11-03T03:52:38.967Z,23.70
2018-11-03T03:55:10.992Z,28.10
2018-11-03T03:57:42.794Z,27.73
2018-11-03T04:00:14.616Z,28.43
2018-11-03T04:02:46.469Z,25.13
2018-11-03T04:05:18.260Z,28.70
2018-11-03T04:07:50.108Z,28.83
2018-11-03T04:10:24.327Z,26.70
2018-11-03T04:12:56.158Z,28.40
2018-11-03T04:15:28.380Z,27.97
2018-11-03T04:18:00.220Z,27.10
2018-11-03T04:20:32.022Z,26.97
2018-11-03T04:23:03.843Z,28.43
2018-11-03T04:25:35.643Z,26.30
2018-11-03T04:28:07.472Z,26.60
2018-11-03T04:30:39.344Z,26.67
2018-11-03T04:33:11.086Z,26.47
2018-11-03T04:35:42.879Z,26.33
2018-11-03T04:38:14.707Z,27.43
2018-11-03T04:40:46.502Z,24.70
2018-11-03T04:43:18.315Z,24.23
2018-11-03T04:45:50.085Z,25.70
2018-11-03T04:48:21.901Z,24.87
2018-11-03T04:50:53.716Z,22.90
2018-11-03T04:53:25.561Z,25.33
2018-11-03T04:55:57.429Z,25.27
2018-11-03T04:58:29.251Z,23.93
2018-11-03T05:01:01.179Z,25.47
2018-11-03T05:03:32.994Z,24.43
2018-11-03T05:06:04.809Z,24.17
2018-11-03T05:08:36.609Z,23.10
2018-11-03T05:11:08.435Z,23.77
2018-11-03T05:13:43.315Z,23.87
2018-11-03T05:16:15.123Z,22.87
2018-11-03T05:18:46.967Z,21.30
2018-11-03T05:21:18.852Z,25.67
2018-11-03T05:23:50.595Z,24.67
2018-11-03T05:26:22.396Z,26.20
2018-11-03T05:28:54.238Z,26.30
2018-11-03T05:31:26.238Z,26.40
2018-11-03T05:33:58.204Z,25.07
2018-11-03T05:36:29.996Z,25.93
2018-11-03T05:39:01.853Z,22.20
2018-11-03T05:41:33.685Z,26.23
2018-11-03T05:44:05.511Z,25.20
2018-11-03T05:46:37.355Z,22.70
2018-11-03T05:49:09.485Z,25.17
2018-11-03T05:51:41.329Z,23.40
2018-11-03T05:54:13.143Z,26.50
2018-11-03T05:56:44.939Z,23.80
2018-11-03T05:59:16.767Z,26.10
2018-11-03T06:01:48.885Z,23.80
2018-11-03T06:04:22.634Z,24.17
2018-11-03T06:06:54.490Z,25.93
2018-11-03T06:09:26.290Z,24.33
2018-11-03T06:11:58.266Z,21.10
2018-11-03T06:14:30.082Z,24.07
2018-11-03T06:17:01.856Z,22.30
2018-11-03T06:19:33.666Z,20.50
2018-11-03T06:22:05.465Z,19.77
2018-11-03T06:24:37.368Z,22.97
2018-11-03T06:27:09.210Z,22.80
2018-11-03T06:29:41.049Z,20.53
2018-11-03T06:32:12.856Z,24.43
2018-11-03T06:34:44.692Z,21.53
2018-11-03T06:37:19.332Z,22.00
2018-11-03T06:39:51.164Z,23.43
2018-11-03T06:42:22.937Z,22.17
2018-11-03T06:44:54.770Z,23.00
2018-11-03T06:47:26.704Z,20.73
2018-11-03T06:50:00.280Z,23.47
2018-11-03T06:52:30.304Z,24.30
2018-11-03T06:55:02.176Z,22.53
2018-11-03T06:57:34.080Z,24.23
2018-11-03T07:00:07.457Z,22.03
2018-11-03T07:02:39.282Z,23.07
2018-11-03T07:05:11.185Z,23.20
2018-11-03T07:07:42.966Z,23.13
2018-11-03T07:10:14.797Z,19.33
2018-11-03T07:12:46.805Z,23.30
2018-11-03T07:15:18.433Z,20.47
2018-11-03T07:17:50.263Z,20.97
2018-11-03T07:20:22.091Z,20.90
2018-11-03T07:22:53.976Z,20.30
2018-11-03T07:25:25.799Z,21.30
2018-11-03T07:27:57.670Z,21.10
2018-11-03T07:30:29.500Z,19.73
2018-11-03T07:33:01.283Z,19.07
2018-11-03T07:35:33.155Z,20.90
2018-11-03T07:38:05.026Z,21.60
2018-11-03T07:40:36.885Z,22.67
2018-11-03T07:43:08.629Z,19.50
2018-11-03T07:45:40.433Z,21.80
2018-11-03T07:48:12.413Z,19.60
2018-11-03T07:50:44.101Z,18.23
2018-11-03T07:53:15.886Z,18.43
2018-11-03T07:55:47.724Z,18.57
2018-11-03T07:58:19.751Z,21.50
2018-11-03T08:00:51.677Z,20.17
2018-11-03T08:03:23.935Z,20.40
2018-11-03T08:05:55.852Z,19.93
2018-11-03T08:08:27.794Z,21.87
2018-11-03T08:10:59.640Z,20.23
2018-11-03T08:13:31.457Z,19.60
2018-11-03T08:16:03.456Z,20.93
2018-11-03T08:18:35.115Z,21.73
2018-11-03T08:21:07.060Z,20.70
2018-11-03T08:23:38.978Z,19.33
2018-11-03T08:26:10.881Z,21.20
2018-11-03T08:28:42.706Z,20.40
2018-11-03T08:31:14.570Z,19.83
2018-11-03T08:33:46.607Z,22.07
2018-11-03T08:36:20.206Z,20.60
2018-11-03T08:38:52.004Z,22.83
2018-11-03T08:41:23.840Z,20.50
2018-11-03T08:43:57.841Z,22.60
2018-11-03T08:46:29.725Z,23.00
2018-11-03T08:49:01.622Z,21.80
2018-11-03T08:51:33.430Z,22.23
2018-11-03T08:54:05.229Z,21.50
2018-11-03T08:56:37.152Z,21.80
2018-11-03T08:59:09.397Z,20.20
2018-11-03T09:01:41.299Z,20.80
2018-11-03T09:04:13.117Z,21.63
2018-11-03T09:06:45.051Z,20.60
2018-11-03T09:09:16.874Z,19.83
2018-11-03T09:11:48.814Z,22.27
2018-11-03T09:14:20.734Z,20.77
2018-11-03T09:16:52.852Z,22.10
2018-11-03T09:19:24.724Z,22.50
2018-11-03T09:21:56.695Z,22.83
2018-11-03T09:24:28.488Z,21.60
2018-11-03T09:27:00.415Z,22.50
2018-11-03T09:29:32.255Z,24.53
2018-11-03T09:32:04.176Z,22.27
2018-11-03T09:34:36.104Z,23.00
2018-11-03T09:37:08.571Z,23.27
2018-11-03T09:39:40.441Z,24.50
2018-11-03T09:42:12.415Z,29.50
2018-11-03T09:44:44.259Z,23.70
2018-11-03T09:47:16.131Z,21.83
2018-11-03T09:49:47.975Z,22.97
2018-11-03T09:52:19.966Z,23.30
2018-11-03T09:54:51.811Z,23.13
2018-11-03T09:57:23.716Z,24.00
2018-11-03T09:59:55.607Z,24.90
2018-11-03T10:02:27.487Z,21.33
2018-11-03T10:04:59.295Z,23.13
2018-11-03T10:07:31.169Z,24.13
2018-11-03T10:10:03.071Z,22.47
2018-11-03T10:12:34.950Z,23.00
2018-11-03T10:15:06.916Z,21.50
2018-11-03T10:17:38.826Z,23.33
2018-11-03T10:20:11.278Z,23.27
2018-11-03T10:22:43.184Z,23.97
2018-11-03T10:25:16.901Z,21.90
2018-11-03T10:27:49.197Z,24.43
2018-11-03T10:30:21.003Z,23.50
2018-11-03T10:32:52.835Z,22.17
2018-11-03T10:35:24.804Z,23.80
2018-11-03T10:37:56.716Z,25.50
2018-11-03T10:40:28.514Z,24.67
2018-11-03T10:43:00.385Z,23.73
2018-11-03T10:45:32.336Z,24.23
2018-11-03T10:48:04.278Z,22.87
2018-11-03T10:50:36.174Z,24.53
2018-11-03T10:53:08.420Z,24.63
2018-11-03T10:55:40.415Z,25.73
2018-11-03T10:58:12.282Z,22.53
2018-11-03T11:01:01.263Z,23.87
2018-11-03T11:03:50.139Z,24.73
2018-11-03T11:06:39.088Z,22.80
2018-11-03T11:09:28.263Z,24.47
2018-11-03T11:12:17.536Z,24.37
2018-11-03T11:14:49.438Z,23.97
2018-11-03T11:17:21.444Z,24.87
2018-11-03T11:19:53.520Z,22.63
2018-11-03T11:22:25.415Z,25.77
2018-11-03T11:24:57.608Z,24.83
2018-11-03T11:27:29.402Z,25.17
2018-11-03T11:30:01.409Z,23.50
2018-11-03T11:32:33.573Z,20.90
2018-11-03T11:35:07.295Z,21.60
2018-11-03T11:37:39.991Z,23.30
2018-11-03T11:40:11.845Z,21.97
2018-11-03T11:42:43.848Z,21.47
2018-11-03T11:45:15.840Z,23.13
2018-11-03T11:47:47.739Z,21.97
2018-11-03T11:50:19.866Z,24.73
2018-11-03T11:52:51.949Z,22.13
2018-11-03T11:55:23.838Z,23.83
2018-11-03T11:57:55.744Z,21.73
2018-11-03T12:00:27.727Z,21.70
2018-11-03T12:02:59.658Z,24.83
2018-11-03T12:05:31.643Z,24.20
2018-11-03T12:08:03.547Z,23.40
2018-11-03T12:10:35.614Z,23.63
2018-11-03T12:13:07.748Z,25.30
2018-11-03T12:15:39.661Z,25.83
2018-11-03T12:18:11.513Z,26.37
2018-11-03T12:20:43.474Z,26.20
2018-11-03T12:23:15.550Z,27.80
2018-11-03T12:25:47.499Z,28.53
2018-11-03T12:28:19.473Z,26.87
2018-11-03T12:30:51.335Z,27.60
2018-11-03T12:33:23.235Z,29.03
2018-11-03T12:35:55.556Z,29.90
2018-11-03T12:38:27.749Z,27.77
2018-11-03T12:40:59.811Z,28.40
2018-11-03T12:43:31.558Z,28.83
2018-11-03T12:46:03.595Z,28.53
2018-11-03T12:48:35.732Z,29.90
2018-11-03T12:51:08.231Z,30.13
2018-11-03T12:53:43.276Z,27.77
2018-11-03T12:56:15.315Z,29.93
2018-11-03T12:58:47.362Z,29.17
2018-11-03T13:01:20.129Z,26.40
2018-11-03T13:03:54.104Z,29.63
2018-11-03T13:06:26.028Z,27.90
2018-11-03T13:08:57.971Z,28.37
2018-11-03T13:11:29.809Z,25.60
2018-11-03T13:14:01.715Z,26.60
2018-11-03T13:16:33.618Z,24.47
2018-11-03T13:19:05.487Z,26.77
2018-11-03T13:21:37.376Z,28.43
2018-11-03T13:24:09.313Z,26.47
2018-11-03T13:26:41.189Z,26.70
2018-11-03T13:29:13.043Z,27.97
2018-11-03T13:31:44.938Z,27.17
2018-11-03T13:34:16.728Z,26.70
2018-11-03T13:36:48.675Z,26.50
2018-11-03T13:39:20.505Z,25.37
2018-11-03T13:41:52.398Z,25.53
2018-11-03T13:44:24.178Z,26.90
2018-11-03T13:46:56.053Z,22.93
2018-11-03T13:49:27.992Z,24.80
2018-11-03T13:51:59.915Z,24.10
2018-11-03T13:54:31.754Z,24.60
2018-11-03T13:57:03.808Z,24.70
2018-11-03T13:59:35.577Z,22.43
2018-11-03T14:02:07.443Z,22.57
2018-11-03T14:04:39.266Z,22.63
2018-11-03T14:07:11.203Z,23.33
2018-11-03T14:09:42.952Z,24.07
2018-11-03T14:12:14.806Z,22.77
2018-11-03T14:14:46.602Z,24.80
2018-11-03T14:17:18.590Z,23.00
2018-11-03T14:19:50.354Z,27.20
2018-11-03T14:22:22.378Z,25.10
2018-11-03T14:24:54.205Z,26.70
2018-11-03T14:27:26.065Z,23.77
2018-11-03T14:29:57.916Z,23.37
2018-11-03T14:32:29.709Z,24.27
2018-11-03T14:35:01.548Z,22.90
2018-11-03T14:37:33.393Z,20.87
2018-11-03T14:40:05.270Z,21.57
2018-11-03T14:42:37.113Z,21.30
2018-11-03T14:45:10.450Z,23.23
2018-11-03T14:47:42.372Z,22.53
2018-11-03T14:50:14.201Z,21.40
2018-11-03T14:52:46.147Z,22.00
2018-11-03T14:55:17.976Z,22.03
2018-11-03T14:57:49.817Z,22.47
2018-11-03T15:00:21.660Z,22.00
2018-11-03T15:02:53.647Z,21.70
2018-11-03T15:05:25.499Z,22.97
2018-11-03T15:07:59.603Z,21.40
2018-11-03T15:10:31.528Z,22.77
2018-11-03T15:13:03.315Z,24.53
2018-11-03T15:15:35.183Z,25.90
2018-11-03T15:18:07.112Z,25.37
2018-11-03T15:20:38.957Z,24.80
2018-11-03T15:23:10.898Z,26.17
2018-11-03T15:25:42.722Z,24.07
2018-11-03T15:28:14.639Z,24.43
2018-11-03T15:30:46.498Z,24.30
2018-11-03T15:33:18.406Z,25.73
2018-11-03T15:35:50.281Z,27.00
2018-11-03T15:38:22.106Z,27.23
2018-11-03T15:40:53.900Z,30.13
2018-11-03T15:43:25.815Z,27.87
2018-11-03T15:45:57.557Z,27.30
2018-11-03T15:48:29.405Z,25.47
2018-11-03T15:51:01.281Z,27.87
2018-11-03T15:53:33.121Z,28.17
2018-11-03T15:56:05.040Z,28.97
2018-11-03T15:58:36.869Z,30.40
2018-11-03T16:01:08.727Z,33.27
2018-11-03T16:03:41.076Z,32.77
2018-11-03T16:06:15.489Z,31.43
2018-11-03T16:08:47.395Z,32.03
2018-11-03T16:11:19.208Z,33.27
2018-11-03T16:13:51.037Z,37.57
2018-11-03T16:16:22.882Z,32.40
2018-11-03T16:18:57.744Z,37.70
2018-11-03T16:21:29.594Z,32.10
2018-11-03T16:24:01.454Z,32.40
2018-11-03T16:26:33.447Z,31.70
2018-11-03T16:29:05.237Z,32.43
2018-11-03T16:31:37.040Z,32.60
2018-11-03T16:34:08.895Z,31.10
2018-11-03T16:36:40.721Z,31.63
2018-11-03T16:39:12.671Z,36.00
2018-11-03T16:41:44.382Z,33.23
2018-11-03T16:44:16.262Z,35.20
2018-11-03T16:46:48.161Z,32.20
2018-11-03T16:49:23.278Z,36.20
2018-11-03T16:51:57.021Z,36.73
2018-11-03T16:54:32.213Z,33.17
2018-11-03T16:57:04.064Z,36.57
2018-11-03T16:59:35.906Z,33.60
2018-11-03T17:02:07.967Z,34.70
2018-11-03T17:04:39.800Z,38.90
2018-11-03T17:07:11.663Z,34.53
2018-11-03T17:09:43.555Z,35.33
2018-11-03T17:12:15.449Z,35.40
2018-11-03T17:14:47.339Z,31.70
2018-11-03T17:17:19.150Z,35.03
2018-11-03T17:19:50.984Z,35.20
2018-11-03T17:22:22.811Z,36.90
2018-11-03T17:24:54.708Z,35.73
2018-11-03T17:27:26.498Z,37.10
2018-11-03T17:29:58.341Z,35.57
2018-11-03T17:32:30.348Z,38.37
2018-11-03T17:35:02.111Z,36.47
2018-11-03T17:37:33.942Z,33.00
2018-11-03T17:40:06.463Z,36.50
2018-11-03T17:42:38.276Z,36.20
2018-11-03T17:45:11.575Z,36.50
2018-11-03T17:47:43.406Z,38.07
2018-11-03T17:50:15.414Z,37.60
2018-11-03T17:52:47.222Z,38.90
2018-11-03T17:55:19.140Z,35.80
2018-11-03T17:57:50.960Z,36.50
2018-11-03T18:00:25.217Z,37.00
2018-11-03T18:02:56.838Z,36.93
2018-11-03T18:05:28.798Z,35.37
2018-11-03T18:08:00.642Z,35.00
2018-11-03T18:10:32.574Z,35.10
2018-11-03T18:13:04.417Z,35.83
2018-11-03T18:15:36.251Z,33.03
2018-11-03T18:18:08.183Z,37.70
2018-11-03T18:20:38.646Z,33.50
2018-11-03T18:23:10.388Z,32.27
2018-11-03T18:25:42.286Z,34.43
2018-11-03T18:28:14.139Z,33.37
2018-11-03T18:30:46.050Z,34.03
2018-11-03T18:33:17.969Z,36.50
2018-11-03T18:35:49.759Z,34.10
2018-11-03T18:38:21.572Z,33.87
2018-11-03T18:40:53.418Z,34.17
2018-11-03T18:43:25.307Z,34.50
2018-11-03T18:45:57.190Z,35.40
2018-11-03T18:48:29.066Z,34.23
2018-11-03T18:51:00.931Z,36.90
2018-11-03T18:53:32.834Z,32.80
2018-11-03T18:56:04.714Z,35.07
2018-11-03T18:58:36.552Z,33.93
2018-11-03T19:01:08.585Z,33.17
2018-11-03T19:03:40.410Z,35.90
2018-11-03T19:06:12.291Z,34.37
2018-11-03T19:08:44.119Z,34.97
2018-11-03T19:11:15.945Z,33.47
2018-11-03T19:13:47.879Z,33.40
2018-11-03T19:16:19.725Z,33.50
2018-11-03T19:18:51.781Z,34.80
2018-11-03T19:21:23.951Z,32.60
2018-11-03T19:23:56.026Z,34.53
2018-11-03T19:26:28.057Z,35.67
2018-11-03T19:29:00.121Z,33.90
2018-11-03T19:31:32.330Z,34.60
2018-11-03T19:34:04.520Z,33.60
2018-11-03T19:36:36.679Z,32.57
2018-11-03T19:39:10.520Z,33.77
2018-11-03T19:41:42.744Z,30.60
2018-11-03T19:44:14.759Z,31.80
2018-11-03T19:46:46.920Z,33.50
2018-11-03T19:49:18.976Z,31.70
2018-11-03T19:51:51.162Z,31.07
2018-11-03T19:54:23.205Z,31.80
2018-11-03T19:56:55.371Z,28.53
2018-11-03T19:59:27.186Z,29.77
2018-11-03T20:01:59.116Z,29.90
2018-11-03T20:04:30.953Z,27.27
2018-11-03T20:07:02.801Z,27.10
2018-11-03T20:09:34.602Z,25.83
2018-11-03T20:12:06.724Z,30.30
2018-11-03T20:14:39.550Z,25.30
2018-11-03T20:17:11.571Z,28.23
2018-11-03T20:19:43.444Z,26.27
2018-11-03T20:22:15.372Z,25.80
2018-11-03T20:24:47.216Z,26.17
2018-11-03T20:27:19.086Z,24.97
2018-11-03T20:29:50.948Z,25.07
2018-11-03T20:32:22.795Z,25.03
2018-11-03T20:34:54.669Z,25.13
2018-11-03T20:37:26.494Z,24.40
2018-11-03T20:39:58.356Z,28.50
2018-11-03T20:42:30.239Z,25.70
2018-11-03T20:45:02.185Z,25.23
2018-11-03T20:47:34.045Z,27.00
2018-11-03T20:50:06.541Z,25.20
2018-11-03T20:52:38.445Z,25.23
2018-11-03T20:55:10.918Z,25.63
2018-11-03T20:57:42.954Z,23.03
2018-11-03T21:00:22.785Z,27.90
2018-11-03T21:02:54.656Z,28.37
2018-11-03T21:05:26.485Z,25.10
2018-11-03T21:07:58.361Z,25.83
2018-11-03T21:10:30.158Z,29.40
2018-11-03T21:13:02.017Z,31.07
2018-11-03T21:15:33.868Z,27.20
2018-11-03T21:18:05.749Z,27.67
2018-11-03T21:20:37.826Z,29.73
2018-11-03T21:23:09.710Z,29.70
2018-11-03T21:25:41.578Z,30.93
2018-11-03T21:28:13.481Z,29.30
2018-11-03T21:30:45.363Z,29.10
2018-11-03T21:33:17.272Z,30.57
2018-11-03T21:35:49.096Z,29.07
2018-11-03T21:38:21.084Z,29.83
2018-11-03T21:40:52.825Z,30.10
2018-11-03T21:43:24.689Z,26.87
2018-11-03T21:45:56.643Z,26.07
2018-11-03T21:48:28.486Z,26.70
2018-11-03T21:51:00.327Z,30.03
2018-11-03T21:53:32.213Z,26.43
2018-11-03T21:56:04.124Z,29.17
2018-11-03T21:58:35.951Z,29.73
2018-11-03T22:01:07.874Z,26.63
2018-11-03T22:03:39.682Z,27.30
2018-11-03T22:06:11.515Z,26.70
2018-11-03T22:08:43.349Z,27.70
2018-11-03T22:11:15.173Z,25.60
2018-11-03T22:13:47.009Z,29.30
2018-11-03T22:16:18.862Z,30.73
2018-11-03T22:18:50.937Z,29.00
2018-11-03T22:21:22.777Z,29.57
2018-11-03T22:23:54.704Z,29.13
2018-11-03T22:26:26.504Z,27.83
2018-11-03T22:28:58.354Z,29.87
2018-11-03T22:31:30.659Z,29.20
2018-11-03T22:34:02.586Z,29.50
2018-11-03T22:36:34.370Z,28.13
2018-11-03T22:39:07.965Z,29.77
2018-11-03T22:41:39.798Z,27.73
2018-11-03T22:44:11.653Z,29.70
2018-11-03T22:46:43.447Z,27.43
2018-11-03T22:49:15.598Z,28.07
2018-11-03T22:51:47.504Z,29.90
2018-11-03T22:54:19.252Z,27.57
2018-11-03T22:56:51.151Z,28.73
2018-11-03T22:59:23.049Z,26.13
2018-11-03T23:01:54.773Z,27.50
2018-11-03T23:04:26.572Z,28.20
2018-11-03T23:06:58.401Z,27.47
2018-11-03T23:09:30.199Z,27.57
2018-11-03T23:12:02.007Z,28.80
2018-11-03T23:14:33.882Z,26.67
2018-11-03T23:17:05.712Z,29.67
2018-11-03T23:19:38.083Z,25.63
2018-11-03T23:22:10.499Z,26.97
2018-11-03T23:24:42.208Z,30.03
2018-11-03T23:27:14.020Z,27.50
2018-11-03T23:29:46.014Z,29.53
2018-11-03T23:32:17.755Z,29.70
2018-11-03T23:34:49.597Z,30.30
2018-11-03T23:37:21.405Z,29.87
2018-11-03T23:39:53.217Z,31.33
2018-11-03T23:42:25.039Z,28.97
2018-11-03T23:44:56.902Z,31.30
2018-11-03T23:47:28.642Z,29.10
2018-11-03T23:50:00.482Z,31.30
2018-11-03T23:52:35.921Z,29.23
2018-11-03T23:55:07.752Z,28.93
2018-11-03T23:57:39.552Z,28.63
